sensor_id;sensor_type;location;lat;lon;timestamp;P1;durP1;ratioP1;P2;durP2;ratioP2
32146;SDS011;32190;49.112;8.598;2023-02-23T00:01:29;7.60;;;5.35;;
32146;SDS011;32190;49.112;8.598;2023-02-23T00:07:20;10.27;;;6.43;;
32146;SDS011;32190;49.112;8.598;2023-02-23T00:13:10;8.50;;;6.32;;
32146;SDS011;32190;49.112;8.598;2023-02-23T00:19:01;8.20;;;5.40;;
32146;SDS011;32190;49.112;8.598;2023-02-23T00:24:51;8.80;;;6.30;;
32146;SDS011;32190;49.112;8.598;2023-02-23T00:30:42;6.07;;;5.10;;
32146;SDS011;32190;49.112;8.598;2023-02-23T00:36:35;9.40;;;6.72;;
32146;SDS011;32190;49.112;8.598;2023-02-23T00:42:26;8.68;;;6.07;;
32146;SDS011;32190;49.112;8.598;2023-02-23T00:48:23;9.20;;;5.65;;
32146;SDS011;32190;49.112;8.598;2023-02-23T00:54:15;7.22;;;4.90;;
32146;SDS011;32190;49.112;8.598;2023-02-23T01:00:08;8.48;;;6.00;;
32146;SDS011;32190;49.112;8.598;2023-02-23T01:06:12;7.13;;;5.10;;
32146;SDS011;32190;49.112;8.598;2023-02-23T01:12:05;5.97;;;5.00;;
32146;SDS011;32190;49.112;8.598;2023-02-23T01:17:56;5.85;;;5.03;;
32146;SDS011;32190;49.112;8.598;2023-02-23T01:23:54;7.07;;;5.95;;
32146;SDS011;32190;49.112;8.598;2023-02-23T01:29:55;7.20;;;6.00;;
32146;SDS011;32190;49.112;8.598;2023-02-23T01:35:55;7.78;;;5.15;;
32146;SDS011;32190;49.112;8.598;2023-02-23T01:41:50;8.63;;;5.85;;
32146;SDS011;32190;49.112;8.598;2023-02-23T01:47:43;9.95;;;6.55;;
32146;SDS011;32190;49.112;8.598;2023-02-23T01:53:35;6.95;;;5.70;;
32146;SDS011;32190;49.112;8.598;2023-02-23T01:59:30;9.38;;;5.70;;
32146;SDS011;32190;49.112;8.598;2023-02-23T02:05:35;7.30;;;5.18;;
32146;SDS011;32190;49.112;8.598;2023-02-23T02:11:35;6.35;;;5.25;;
32146;SDS011;32190;49.112;8.598;2023-02-23T02:17:30;7.18;;;5.55;;
32146;SDS011;32190;49.112;8.598;2023-02-23T02:23:50;6.57;;;5.40;;
32146;SDS011;32190;49.112;8.598;2023-02-23T02:36:13;7.32;;;5.47;;
32146;SDS011;32190;49.112;8.598;2023-02-23T02:42:29;11.65;;;7.15;;
32146;SDS011;32190;49.112;8.598;2023-02-23T02:54:54;6.93;;;5.83;;
32146;SDS011;32190;49.112;8.598;2023-02-23T03:01:04;9.27;;;7.25;;
32146;SDS011;32190;49.112;8.598;2023-02-23T03:07:39;6.03;;;5.15;;
32146;SDS011;32190;49.112;8.598;2023-02-23T03:20:42;9.15;;;6.20;;
32146;SDS011;32190;49.112;8.598;2023-02-23T03:26:59;8.10;;;6.32;;
32146;SDS011;32190;49.112;8.598;2023-02-23T03:33:14;8.05;;;5.45;;
32146;SDS011;32190;49.112;8.598;2023-02-23T03:39:38;8.30;;;5.80;;
32146;SDS011;32190;49.112;8.598;2023-02-23T03:45:53;9.48;;;5.40;;
32146;SDS011;32190;49.112;8.598;2023-02-23T03:52:06;8.00;;;5.90;;
32146;SDS011;32190;49.112;8.598;2023-02-23T03:58:22;6.80;;;5.38;;
32146;SDS011;32190;49.112;8.598;2023-02-23T04:04:43;7.18;;;5.25;;
32146;SDS011;32190;49.112;8.598;2023-02-23T04:11:11;6.07;;;5.13;;
32146;SDS011;32190;49.112;8.598;2023-02-23T04:17:27;4.80;;;3.63;;
32146;SDS011;32190;49.112;8.598;2023-02-23T04:23:18;7.22;;;4.97;;
32146;SDS011;32190;49.112;8.598;2023-02-23T04:29:11;6.03;;;4.85;;
32146;SDS011;32190;49.112;8.598;2023-02-23T04:35:10;6.55;;;4.82;;
32146;SDS011;32190;49.112;8.598;2023-02-23T04:41:01;5.22;;;3.95;;
32146;SDS011;32190;49.112;8.598;2023-02-23T04:46:52;5.22;;;3.60;;
32146;SDS011;32190;49.112;8.598;2023-02-23T04:52:43;4.85;;;3.63;;
32146;SDS011;32190;49.112;8.598;2023-02-23T04:58:36;4.82;;;3.40;;
32146;SDS011;32190;49.112;8.598;2023-02-23T05:04:27;7.40;;;4.50;;
32146;SDS011;32190;49.112;8.598;2023-02-23T05:10:18;4.82;;;3.80;;
32146;SDS011;32190;49.112;8.598;2023-02-23T05:16:08;4.82;;;3.78;;
32146;SDS011;32190;49.112;8.598;2023-02-23T05:21:59;4.80;;;4.30;;
32146;SDS011;32190;49.112;8.598;2023-02-23T05:27:50;7.70;;;4.93;;
32146;SDS011;32190;49.112;8.598;2023-02-23T05:33:40;6.65;;;4.35;;
32146;SDS011;32190;49.112;8.598;2023-02-23T05:39:34;5.47;;;4.30;;
32146;SDS011;32190;49.112;8.598;2023-02-23T05:45:25;5.72;;;4.00;;
32146;SDS011;32190;49.112;8.598;2023-02-23T05:51:15;4.78;;;3.95;;
32146;SDS011;32190;49.112;8.598;2023-02-23T05:57:09;5.65;;;3.83;;
32146;SDS011;32190;49.112;8.598;2023-02-23T06:03:00;4.68;;;3.83;;
32146;SDS011;32190;49.112;8.598;2023-02-23T06:08:53;5.30;;;3.55;;
32146;SDS011;32190;49.112;8.598;2023-02-23T06:14:44;4.80;;;3.55;;
32146;SDS011;32190;49.112;8.598;2023-02-23T06:20:38;4.70;;;3.47;;
32146;SDS011;32190;49.112;8.598;2023-02-23T06:26:29;4.55;;;3.80;;
32146;SDS011;32190;49.112;8.598;2023-02-23T06:32:20;5.22;;;3.60;;
32146;SDS011;32190;49.112;8.598;2023-02-23T06:38:10;4.53;;;3.83;;
32146;SDS011;32190;49.112;8.598;2023-02-23T06:44:01;4.68;;;3.45;;
32146;SDS011;32190;49.112;8.598;2023-02-23T06:49:52;6.10;;;3.78;;
32146;SDS011;32190;49.112;8.598;2023-02-23T06:55:43;4.95;;;3.88;;
32146;SDS011;32190;49.112;8.598;2023-02-23T07:01:34;6.07;;;3.85;;
32146;SDS011;32190;49.112;8.598;2023-02-23T07:07:24;5.45;;;3.42;;
32146;SDS011;32190;49.112;8.598;2023-02-23T07:13:15;4.35;;;3.17;;
32146;SDS011;32190;49.112;8.598;2023-02-23T07:19:05;3.75;;;3.13;;
32146;SDS011;32190;49.112;8.598;2023-02-23T07:24:56;6.25;;;3.42;;
32146;SDS011;32190;49.112;8.598;2023-02-23T07:30:47;3.25;;;2.95;;
32146;SDS011;32190;49.112;8.598;2023-02-23T07:36:39;5.07;;;3.30;;
32146;SDS011;32190;49.112;8.598;2023-02-23T07:42:32;6.70;;;3.83;;
32146;SDS011;32190;49.112;8.598;2023-02-23T07:48:23;4.68;;;2.58;;
32146;SDS011;32190;49.112;8.598;2023-02-23T07:54:13;4.68;;;3.42;;
32146;SDS011;32190;49.112;8.598;2023-02-23T08:00:05;4.78;;;3.13;;
32146;SDS011;32190;49.112;8.598;2023-02-23T08:05:56;3.70;;;2.58;;
32146;SDS011;32190;49.112;8.598;2023-02-23T08:11:47;3.30;;;2.80;;
32146;SDS011;32190;49.112;8.598;2023-02-23T08:17:37;3.83;;;2.78;;
32146;SDS011;32190;49.112;8.598;2023-02-23T08:23:29;3.92;;;2.55;;
32146;SDS011;32190;49.112;8.598;2023-02-23T08:29:21;4.03;;;2.95;;
32146;SDS011;32190;49.112;8.598;2023-02-23T08:35:11;3.72;;;3.20;;
32146;SDS011;32190;49.112;8.598;2023-02-23T08:41:04;3.90;;;3.03;;
32146;SDS011;32190;49.112;8.598;2023-02-23T08:46:57;3.35;;;2.85;;
32146;SDS011;32190;49.112;8.598;2023-02-23T08:52:48;4.05;;;3.13;;
32146;SDS011;32190;49.112;8.598;2023-02-23T08:58:49;4.13;;;2.70;;
32146;SDS011;32190;49.112;8.598;2023-02-23T09:04:43;3.65;;;2.95;;
32146;SDS011;32190;49.112;8.598;2023-02-23T09:10:37;3.53;;;3.22;;
32146;SDS011;32190;49.112;8.598;2023-02-23T09:16:33;8.45;;;3.60;;
32146;SDS011;32190;49.112;8.598;2023-02-23T09:22:24;3.85;;;3.40;;
32146;SDS011;32190;49.112;8.598;2023-02-23T09:28:16;4.10;;;2.92;;
32146;SDS011;32190;49.112;8.598;2023-02-23T09:34:08;4.30;;;3.50;;
32146;SDS011;32190;49.112;8.598;2023-02-23T09:39:59;3.92;;;3.20;;
32146;SDS011;32190;49.112;8.598;2023-02-23T09:45:55;7.45;;;3.95;;
32146;SDS011;32190;49.112;8.598;2023-02-23T09:51:54;3.95;;;3.28;;
32146;SDS011;32190;49.112;8.598;2023-02-23T09:57:49;4.25;;;3.78;;
32146;SDS011;32190;49.112;8.598;2023-02-23T10:03:41;6.05;;;4.38;;
32146;SDS011;32190;49.112;8.598;2023-02-23T10:16:53;4.72;;;3.58;;
32146;SDS011;32190;49.112;8.598;2023-02-23T10:29:38;4.97;;;3.33;;
32146;SDS011;32190;49.112;8.598;2023-02-23T10:35:44;4.15;;;3.33;;
32146;SDS011;32190;49.112;8.598;2023-02-23T10:41:36;6.45;;;3.20;;
32146;SDS011;32190;49.112;8.598;2023-02-23T10:47:34;7.72;;;3.38;;
32146;SDS011;32190;49.112;8.598;2023-02-23T10:53:29;3.80;;;3.13;;
32146;SDS011;32190;49.112;8.598;2023-02-23T11:11:32;3.78;;;2.63;;
32146;SDS011;32190;49.112;8.598;2023-02-23T11:23:25;2.25;;;2.05;;
32146;SDS011;32190;49.112;8.598;2023-02-23T11:29:25;2.20;;;2.00;;
32146;SDS011;32190;49.112;8.598;2023-02-23T11:35:26;4.05;;;2.30;;
32146;SDS011;32190;49.112;8.598;2023-02-23T11:41:22;1.33;;;1.23;;
32146;SDS011;32190;49.112;8.598;2023-02-23T11:47:14;2.58;;;2.08;;
32146;SDS011;32190;49.112;8.598;2023-02-23T11:53:13;2.95;;;2.10;;
32146;SDS011;32190;49.112;8.598;2023-02-23T11:59:14;3.97;;;2.05;;
32146;SDS011;32190;49.112;8.598;2023-02-23T12:05:16;3.17;;;2.05;;
32146;SDS011;32190;49.112;8.598;2023-02-23T12:11:14;3.47;;;2.75;;
32146;SDS011;32190;49.112;8.598;2023-02-23T12:17:15;2.58;;;2.03;;
32146;SDS011;32190;49.112;8.598;2023-02-23T12:23:11;4.75;;;2.20;;
32146;SDS011;32190;49.112;8.598;2023-02-23T12:29:16;2.45;;;1.52;;
32146;SDS011;32190;49.112;8.598;2023-02-23T12:35:13;2.47;;;1.83;;
32146;SDS011;32190;49.112;8.598;2023-02-23T12:41:29;2.40;;;1.50;;
32146;SDS011;32190;49.112;8.598;2023-02-23T13:18:46;3.47;;;2.42;;
32146;SDS011;32190;49.112;8.598;2023-02-23T13:24:42;3.75;;;2.67;;
32146;SDS011;32190;49.112;8.598;2023-02-23T13:30:37;2.40;;;2.20;;
32146;SDS011;32190;49.112;8.598;2023-02-23T13:36:34;2.33;;;2.13;;
32146;SDS011;32190;49.112;8.598;2023-02-23T13:42:41;2.72;;;2.03;;
32146;SDS011;32190;49.112;8.598;2023-02-23T14:01:16;2.42;;;1.85;;
32146;SDS011;32190;49.112;8.598;2023-02-23T14:07:20;4.50;;;2.60;;
32146;SDS011;32190;49.112;8.598;2023-02-23T14:13:28;5.05;;;2.75;;
32146;SDS011;32190;49.112;8.598;2023-02-23T14:19:34;3.13;;;2.10;;
32146;SDS011;32190;49.112;8.598;2023-02-23T14:31:23;2.78;;;1.80;;
32146;SDS011;32190;49.112;8.598;2023-02-23T14:37:39;1.52;;;1.23;;
32146;SDS011;32190;49.112;8.598;2023-02-23T14:49:27;2.20;;;1.40;;
32146;SDS011;32190;49.112;8.598;2023-02-23T14:55:25;1.50;;;1.40;;
32146;SDS011;32190;49.112;8.598;2023-02-23T15:01:36;1.45;;;1.35;;
32146;SDS011;32190;49.112;8.598;2023-02-23T15:07:32;3.47;;;1.33;;
32146;SDS011;32190;49.112;8.598;2023-02-23T15:13:35;1.52;;;1.33;;
32146;SDS011;32190;49.112;8.598;2023-02-23T15:19:30;1.60;;;1.48;;
32146;SDS011;32190;49.112;8.598;2023-02-23T15:25:38;3.33;;;1.65;;
32146;SDS011;32190;49.112;8.598;2023-02-23T15:38:44;2.03;;;1.60;;
32146;SDS011;32190;49.112;8.598;2023-02-23T15:44:38;1.42;;;1.30;;
32146;SDS011;32190;49.112;8.598;2023-02-23T15:50:31;2.65;;;1.80;;
32146;SDS011;32190;49.112;8.598;2023-02-23T15:56:42;1.60;;;0.90;;
32146;SDS011;32190;49.112;8.598;2023-02-23T16:02:39;2.42;;;1.63;;
32146;SDS011;32190;49.112;8.598;2023-02-23T16:08:31;1.65;;;1.35;;
32146;SDS011;32190;49.112;8.598;2023-02-23T16:14:22;1.50;;;0.90;;
32146;SDS011;32190;49.112;8.598;2023-02-23T16:26:29;1.13;;;0.85;;
32146;SDS011;32190;49.112;8.598;2023-02-23T16:32:34;1.43;;;0.93;;
32146;SDS011;32190;49.112;8.598;2023-02-23T16:38:27;1.17;;;0.80;;
32146;SDS011;32190;49.112;8.598;2023-02-23T16:44:26;2.75;;;1.30;;
32146;SDS011;32190;49.112;8.598;2023-02-23T16:50:19;0.82;;;0.82;;
32146;SDS011;32190;49.112;8.598;2023-02-23T16:56:13;1.00;;;0.77;;
32146;SDS011;32190;49.112;8.598;2023-02-23T17:02:12;2.08;;;0.93;;
32146;SDS011;32190;49.112;8.598;2023-02-23T17:08:02;1.15;;;0.90;;
32146;SDS011;32190;49.112;8.598;2023-02-23T17:13:54;1.42;;;0.90;;
32146;SDS011;32190;49.112;8.598;2023-02-23T17:19:44;1.98;;;0.93;;
32146;SDS011;32190;49.112;8.598;2023-02-23T17:25:35;0.95;;;0.90;;
32146;SDS011;32190;49.112;8.598;2023-02-23T17:31:26;1.17;;;1.02;;
32146;SDS011;32190;49.112;8.598;2023-02-23T17:37:17;1.25;;;0.80;;
32146;SDS011;32190;49.112;8.598;2023-02-23T17:43:09;3.05;;;1.27;;
32146;SDS011;32190;49.112;8.598;2023-02-23T17:49:19;1.27;;;0.82;;
32146;SDS011;32190;49.112;8.598;2023-02-23T17:55:10;2.22;;;1.73;;
32146;SDS011;32190;49.112;8.598;2023-02-23T18:01:01;1.50;;;1.20;;
32146;SDS011;32190;49.112;8.598;2023-02-23T18:06:53;2.88;;;1.70;;
32146;SDS011;32190;49.112;8.598;2023-02-23T18:12:47;1.90;;;1.23;;
32146;SDS011;32190;49.112;8.598;2023-02-23T18:18:38;1.20;;;1.02;;
32146;SDS011;32190;49.112;8.598;2023-02-23T18:24:31;1.88;;;1.45;;
32146;SDS011;32190;49.112;8.598;2023-02-23T18:30:22;3.25;;;1.75;;
32146;SDS011;32190;49.112;8.598;2023-02-23T18:36:24;4.07;;;1.98;;
32146;SDS011;32190;49.112;8.598;2023-02-23T18:42:19;2.10;;;1.75;;
32146;SDS011;32190;49.112;8.598;2023-02-23T18:48:10;2.17;;;2.00;;
32146;SDS011;32190;49.112;8.598;2023-02-23T18:54:02;1.95;;;1.80;;
32146;SDS011;32190;49.112;8.598;2023-02-23T19:00:01;2.85;;;2.38;;
32146;SDS011;32190;49.112;8.598;2023-02-23T19:05:56;3.67;;;2.30;;
32146;SDS011;32190;49.112;8.598;2023-02-23T19:11:48;3.28;;;1.90;;
32146;SDS011;32190;49.112;8.598;2023-02-23T19:17:40;2.85;;;2.08;;
32146;SDS011;32190;49.112;8.598;2023-02-23T19:30:31;2.65;;;2.05;;
32146;SDS011;32190;49.112;8.598;2023-02-23T19:36:24;3.25;;;2.35;;
32146;SDS011;32190;49.112;8.598;2023-02-23T19:48:16;2.95;;;2.63;;
32146;SDS011;32190;49.112;8.598;2023-02-23T19:54:07;4.22;;;2.10;;
32146;SDS011;32190;49.112;8.598;2023-02-23T19:59:59;3.15;;;2.30;;
32146;SDS011;32190;49.112;8.598;2023-02-23T20:06:05;4.90;;;2.85;;
32146;SDS011;32190;49.112;8.598;2023-02-23T20:11:56;2.47;;;2.20;;
32146;SDS011;32190;49.112;8.598;2023-02-23T20:17:46;2.05;;;1.80;;
32146;SDS011;32190;49.112;8.598;2023-02-23T20:23:53;3.60;;;2.63;;
32146;SDS011;32190;49.112;8.598;2023-02-23T20:30:10;3.65;;;2.47;;
32146;SDS011;32190;49.112;8.598;2023-02-23T20:36:06;2.58;;;2.38;;
32146;SDS011;32190;49.112;8.598;2023-02-23T20:42:01;3.55;;;2.53;;
32146;SDS011;32190;49.112;8.598;2023-02-23T20:48:13;2.20;;;2.00;;
32146;SDS011;32190;49.112;8.598;2023-02-23T20:54:06;3.53;;;2.47;;
32146;SDS011;32190;49.112;8.598;2023-02-23T20:59:58;4.95;;;3.13;;
32146;SDS011;32190;49.112;8.598;2023-02-23T21:06:12;2.45;;;2.15;;
32146;SDS011;32190;49.112;8.598;2023-02-23T21:12:08;3.55;;;2.50;;
32146;SDS011;32190;49.112;8.598;2023-02-23T21:17:59;3.65;;;2.30;;
32146;SDS011;32190;49.112;8.598;2023-02-23T21:23:50;4.97;;;2.70;;
32146;SDS011;32190;49.112;8.598;2023-02-23T21:29:40;3.50;;;2.75;;
32146;SDS011;32190;49.112;8.598;2023-02-23T21:35:32;3.08;;;2.78;;
32146;SDS011;32190;49.112;8.598;2023-02-23T21:41:24;2.53;;;2.28;;
32146;SDS011;32190;49.112;8.598;2023-02-23T21:47:16;4.25;;;3.20;;
32146;SDS011;32190;49.112;8.598;2023-02-23T21:53:11;3.67;;;2.92;;
32146;SDS011;32190;49.112;8.598;2023-02-23T21:59:06;4.13;;;3.70;;
32146;SDS011;32190;49.112;8.598;2023-02-23T22:04:57;5.07;;;3.75;;
32146;SDS011;32190;49.112;8.598;2023-02-23T22:10:51;7.15;;;4.15;;
32146;SDS011;32190;49.112;8.598;2023-02-23T22:16:45;4.10;;;3.53;;
32146;SDS011;32190;49.112;8.598;2023-02-23T22:22:36;5.53;;;3.90;;
32146;SDS011;32190;49.112;8.598;2023-02-23T22:28:27;5.35;;;4.32;;
32146;SDS011;32190;49.112;8.598;2023-02-23T22:34:18;5.30;;;4.40;;
32146;SDS011;32190;49.112;8.598;2023-02-23T22:40:08;3.40;;;2.97;;
32146;SDS011;32190;49.112;8.598;2023-02-23T22:46:05;5.63;;;4.10;;
32146;SDS011;32190;49.112;8.598;2023-02-23T22:51:59;5.88;;;4.00;;
32146;SDS011;32190;49.112;8.598;2023-02-23T22:57:50;6.97;;;4.90;;
32146;SDS011;32190;49.112;8.598;2023-02-23T23:03:42;8.52;;;5.28;;
32146;SDS011;32190;49.112;8.598;2023-02-23T23:09:36;6.45;;;4.95;;
32146;SDS011;32190;49.112;8.598;2023-02-23T23:15:31;8.05;;;5.53;;
32146;SDS011;32190;49.112;8.598;2023-02-23T23:21:23;4.90;;;4.18;;
32146;SDS011;32190;49.112;8.598;2023-02-23T23:27:15;7.03;;;5.70;;
32146;SDS011;32190;49.112;8.598;2023-02-23T23:33:09;6.25;;;5.05;;
32146;SDS011;32190;49.112;8.598;2023-02-23T23:39:08;6.80;;;4.68;;
32146;SDS011;32190;49.112;8.598;2023-02-23T23:45:05;8.75;;;4.32;;
32146;SDS011;32190;49.112;8.598;2023-02-23T23:51:02;7.10;;;5.45;;
32146;SDS011;32190;49.112;8.598;2023-02-23T23:56:56;8.00;;;5.33;;
